Hinkle, KY (40953)

8:20 PM EDT on July 09, 2014 (GMT -0400)
liford's (KKYBARBO2) Elev 1066 ft | 36.84 °N, 83.85 °W | Change Station

Current weather conditions updated 3 minutes ago

Scattered Clouds
Scattered Clouds
77.2 °F
Feels Like 79 °F
N
0.0
Wind Variable Wind from NNW

Tomorrow is forecast to be Cooler than today.

Today
High -- | Low -- °F
--% Chance of Precip.
Yesterday
High -- | Low -- °F
Precip. -- in
6:23 AM 8:56 PM
Waxing Gibbous, 91% visible
Pressure 30.01 in
Visibility 10.0 miles
Clouds Scattered Clouds 11000 ft
Heat Index 79 °F
Dew Point 66 °F
Humidity 68%
Rainfall 0.27 in
Snow Depth Not available.
UV 0 out of 12
Pollen 1.10 out of 12
Air Quality Not available.
Flu Activity Sporadic
METAR K1A6 100015Z AUTO 19003KT 10SM SCT110 25/21 A3001 RMK AO2 T02510210

More Conditions Fewer Conditions

Pressure 30.01 in
Visibility 10.0 miles
Clouds Scattered Clouds 11000 ft
Heat Index 79 °F
Dew Point 66 °F
Humidity 68%
Rainfall 0.27 in
Snow Depth Not available.
UV 0 out of 12
Pollen 1.10 out of 12
Air Quality Not available.
Flu Activity Sporadic
METAR K1A6 100015Z AUTO 19003KT 10SM SCT110 25/21 A3001 RMK AO2 T02510210

More Conditions Fewer Conditions

10-Day Weather Forecast

Almanac

Astronomy

Jul. 09, 2014 Rise Set
Actual Time 6:23 AM EDT 8:56 PM EDT
Civil Twilight 5:53 AM EDT 9:26 PM EDT
Nautical Twilight 5:15 AM EDT 10:04 PM EDT
Astronomical Twilight 4:34 AM EDT 10:46 PM EDT
Moon 6:08 PM EDT (7/9) 3:39 AM EDT (7/9)
Length of Visible Light 15h 33m
Length of Day
14h 32m
Tomorrow will be 0m 57s shorter.
Waxing Gibbous, 91% of the Moon is Illuminated
Today
Waxing Gibbous
Jul 12
Full
Jul 18
Last Quarter
Jul 26
New
Aug 3
First Quarter

Today's Extremes

State Highs State Lows

Community

WunderPhotos

Upload Photos

1,732,002 photos uploaded!

Nearby

Snow Depth

Station Depth Elevation
No new snow has been reported.

Earthquake Activity

City Distance Mag. Time & Date
No recent earthquake activity has been reported nearby.
Minimum magnitude displayed is 2.5.

Coastal Water Temperatures

Place Temperature
No Stations Reporting

Nearby Weather Stations

Station Location Temp. Heat Index Dew Point Humidity Wind Precip. Elev Updated Type
liford's, Barbourville, KY 77.2 °F 79 °F 66 °F 68% NNW  at  0.0 mph - / hr 1066 ft 8:17 PM EDT Normal
Mackey Bend, Barbourville, KY 76.3 °F 77 °F 70 °F 80% East  at  2.2 mph 0.00 in / hr 981 ft 8:20 PM EDT Rapid Fire
Corbin, KY 62.6 °F - 56 °F 79% ESE  at  0.0 mph - / hr 1191 ft 8:08 PM EDT Normal
Colmar, Middlesboro, KY 78.7 °F 82 °F 72 °F 81% NE  at  0.0 mph - / hr 1135 ft 8:05 PM EDT Normal
RAWS YELLOW CREEK KY, Middlesboro, KY 78 °F 80 °F 69 °F 75% South  at  1 mph 0.00 in / hr 1089 ft 7:26 PM EDT MADIS
RAWS PEABODY KY, Big Creek, KY 80 °F 81 °F 60 °F 51% ESE  at  1 mph 0.00 in / hr 1464 ft 7:01 PM EDT MADIS
MSWO, London, KY 79.9 °F 80 °F 58 °F 47% NW  at  1.1 mph 0.00 in / hr 1163 ft 8:20 PM EDT Rapid Fire

Show More Stations Show Fewer Stations